ADDS METAR Data INFO
IDs: Format: Raw Decoded Include TAF

Data at: 1151 UTC 21 Jun 2018

KHUM 211047Z 00000KT 7SM SKC 25/24 A2992
KHUM 211035Z AUTO 00000KT 7SM CLR 25/24 A2992 RMK AO2 T02470236
KHUM 211015Z AUTO 00000KT 7SM CLR 25/24 A2991 RMK AO2 T02470236
KHUM 210955Z AUTO 00000KT 7SM CLR 25/24 A2991 RMK AO2 T02500237
KHUM 210935Z AUTO 19003KT 7SM CLR 24/24 A2991 RMK AO2 T02430235
KHUM 210915Z AUTO 00000KT 5SM BR CLR 26/24 A2991 RMK AO2 T02550238
KHUM 210855Z AUTO 00000KT 7SM CLR 26/24 A2991 RMK AO2 T02550238
KHUM 210835Z AUTO 00000KT 7SM CLR 26/24 A2991 RMK AO2 T02550240
KHUM 210815Z AUTO 00000KT 7SM CLR 26/24 A2991 RMK AO2 T02550240
KHUM 210755Z AUTO 00000KT 7SM CLR 26/24 A2991 RMK AO2 T02580240
KHUM 210735Z AUTO 20003KT 7SM CLR 26/24 A2991 RMK AO2 T02580240
KHUM 210715Z AUTO 00000KT 7SM SCT040 SCT046 26/24 A2992 RMK AO2 T02580240
KHUM 210655Z AUTO 20003KT 7SM SCT023 SCT028 BKN046 26/24 A2993 RMK AO2 T02580241
KHUM 210635Z AUTO 20003KT 7SM CLR 26/24 A2993 RMK AO2 T02550240
KHUM 210615Z AUTO 19003KT 7SM CLR 26/24 A2993 RMK AO2 T02550238
KHUM 210555Z AUTO 00000KT 7SM CLR 26/24 A2994 RMK AO2 T02560240 10292 20255 403130236
KHUM 210535Z AUTO 00000KT 7SM SCT022 SCT037 26/24 A2994 RMK AO2 T02580240
KHUM 210515Z AUTO 00000KT 7SM SCT022 26/24 A2994 RMK AO2 T02610239
KHUM 210455Z AUTO 20003KT 7SM SCT022 26/24 A2994 RMK AO2 T02600236
KHUM 210435Z AUTO 19003KT 7SM SCT024 26/24 A2994 RMK AO2 T02570237
KHUM 210415Z AUTO 00000KT 7SM SCT024 26/24 A2995 RMK AO2 LTG DSNT W T02630238
KHUM 210355Z AUTO 20003KT 10SM CLR 27/24 A2994 RMK AO2 T02650237
KHUM 210335Z AUTO 18004KT 10SM CLR 26/24 A2994 RMK AO2 T02600238
KHUM 210315Z AUTO 15003KT 10SM CLR 26/24 A2994 RMK AO2 T02630240
KHUM 210255Z AUTO 17004KT 7SM CLR 27/24 A2994 RMK AO2 T02670238
KHUM 210235Z AUTO 19003KT 10SM CLR 27/24 A2993 RMK AO2 T02690240
KHUM 210215Z AUTO 18004KT 10SM CLR 27/24 A2992 RMK AO2 T02690238
KHUM 210155Z AUTO 18005KT 10SM CLR 28/24 A2991 RMK AO2 T02750241
KHUM 210135Z AUTO 18004KT 7SM SCT023 27/24 A2991 RMK AO2 T02740243
KHUM 210115Z AUTO 18004KT 10SM SCT023 SCT037 28/24 A2990 RMK AO2 T02770241
KHUM 210055Z AUTO 17007KT 7SM SCT023 SCT037 28/24 A2990 RMK AO2 T02810242
KHUM 210035Z AUTO 17004KT 7SM CLR 28/25 A2990 RMK AO2 T02840245
KHUM 210015Z AUTO 18006KT 7SM CLR 29/24 A2989 RMK AO2 T02860243
KHUM 202347Z 17005G09KT 7SM SCT120 29/24 A2989 RMK LAST
KHUM 202255Z 16010KT 7SM SCT025 29/25 A2989
KHUM 202155Z 16011KT 7SM SCT026 31/24 A2991
KHUM 202047Z 16010KT 7SM SCT026 31/25 A2991
KHUM 201947Z 16010KT 7SM SCT028 31/25 A2992
KHUM 201847Z 16008KT 7SM SCT028 31/24 A2994
KHUM 201747Z 16010KT 7SM SCT029 31/25 A2996
KHUM 201647Z 15008KT 7SM BKN027 30/25 A2996
KHUM 201547Z 15008KT 7SM SCT023 BKN033 29/25 A2996
KHUM 201455Z 15010KT 7SM BKN030 30/26 A2996
KHUM 201255Z 00000KT 7SM SKC 27/26 A2996
KHUM 201155Z 00000KT 7SM SKC 25/24 A2995
KHUM 201050Z 00000KT 7SM SCT090 25/224 A2994
KHUM 201035Z AUTO 00000KT 5SM BR CLR 24/24 A2993 RMK AO2 T02410240
KHUM 201015Z AUTO 09003KT 7SM CLR 25/25 A2993 RMK AO2 T02460245
KHUM 200955Z AUTO 00000KT 5SM BR CLR 24/24 A2993 RMK AO2 T02390237
KHUM 200935Z AUTO 00000KT 5SM BR CLR 24/24 A2993 RMK AO2 T02370235
KHUM 200915Z AUTO 00000KT 5SM BR CLR 24/24 A2993 RMK AO2 T02390237
KHUM 200855Z AUTO 00000KT 5SM BR CLR 24/24 A2993 RMK AO2 T02390236
KHUM 200835Z AUTO 00000KT 7SM CLR 24/24 A2994 RMK AO2 T02420240
KHUM 200815Z AUTO 00000KT 7SM CLR 24/24 A2994 RMK AO2 T02430240
KHUM 200755Z AUTO 00000KT 7SM CLR 24/24 A2994 RMK AO2 T02440241
KHUM 200735Z AUTO 00000KT 7SM CLR 25/24 A2994 RMK AO2 T02460243
KHUM 200715Z AUTO 00000KT 10SM CLR 25/24 A2994 RMK AO2 T02480243
KHUM 200655Z AUTO 00000KT 10SM CLR 25/24 A2994 RMK AO2 T02500243
KHUM 200635Z AUTO 00000KT 10SM SCT018 25/24 A2994 RMK AO2 T02500243
KHUM 200615Z AUTO 00000KT 7SM SCT018 25/25 A2995 RMK AO2 T02510245
KHUM 200555Z AUTO 00000KT 10SM SCT016 SCT024 25/24 A2995 RMK AO2 T02510244 10284 20251 403100248
KHUM 200535Z AUTO 00000KT 10SM SCT016 SCT024 26/25 A2996 RMK AO2 T02570245
KHUM 200515Z AUTO 00000KT 7SM CLR 26/25 A2997 RMK AO2 T02580246
KHUM 200455Z AUTO 17004KT 7SM CLR 26/25 A2997 RMK AO2 T02610247
KHUM 200435Z AUTO 15004KT 10SM SCT017 26/25 A2997 RMK AO2 T02620249
KHUM 200415Z AUTO 16003KT 7SM SCT017 BKN022 BKN026 26/25 A2997 RMK AO2 T02630251
KHUM 200355Z AUTO 00000KT 10SM BKN017 BKN028 26/25 A2997 RMK AO2 T02620252
KHUM 200335Z AUTO 16003KT 10SM SCT017 26/25 A2996 RMK AO2 T02600250
KHUM 200315Z AUTO 00000KT 10SM CLR 26/25 A2996 RMK AO2 T02580248
KHUM 200255Z AUTO 00000KT 7SM CLR 26/25 A2997 RMK AO2 T02570247
KHUM 200235Z AUTO 14003KT 10SM CLR 26/25 A2996 RMK AO2 T02620248
KHUM 200215Z AUTO 14004KT 10SM CLR 27/25 A2997 RMK AO2 T02650249
KHUM 200155Z AUTO 14004KT 7SM CLR 27/25 A2996 RMK AO2 T02650250
KHUM 200135Z AUTO 14004KT 7SM SCT020 SCT026 27/25 A2996 RMK AO2 T02660248
KHUM 200115Z AUTO 14004KT 7SM SCT020 SCT026 27/25 A2996 RMK AO2 T02670250
KHUM 200055Z AUTO 00000KT 7SM CLR 27/25 A2995 RMK AO2 T02700250
KHUM 200035Z AUTO 13004KT 10SM SCT024 28/25 A2995 RMK AO2 T02770245
KHUM 200015Z AUTO 13006KT 10SM SCT024 28/24 A2996 RMK AO2 T02820244